createdAt,value
2023-10-24T00:01:55.219Z,8.00
2023-10-24T00:04:23.840Z,7.57
2023-10-24T00:06:52.194Z,8.97
2023-10-24T00:09:21.976Z,8.53
2023-10-24T00:11:50.456Z,7.73
2023-10-24T00:14:19.885Z,7.87
2023-10-24T00:16:48.418Z,8.53
2023-10-24T00:19:17.007Z,8.90
2023-10-24T00:21:45.473Z,8.57
2023-10-24T00:24:13.925Z,8.67
2023-10-24T00:26:43.604Z,8.40
2023-10-24T00:29:12.022Z,9.20
2023-10-24T00:31:40.555Z,8.23
2023-10-24T00:34:10.633Z,8.70
2023-10-24T00:36:40.841Z,8.60
2023-10-24T00:39:09.742Z,10.00
2023-10-24T00:41:38.155Z,9.90
2023-10-24T00:44:08.752Z,9.63
2023-10-24T00:46:37.314Z,9.60
2023-10-24T00:49:05.829Z,9.70
2023-10-24T00:51:34.310Z,9.33
2023-10-24T00:54:03.077Z,9.83
2023-10-24T00:56:32.021Z,10.30
2023-10-24T00:59:01.163Z,11.03
2023-10-24T01:01:31.057Z,10.60
2023-10-24T01:03:59.762Z,9.73
2023-10-24T01:06:28.517Z,10.37
2023-10-24T01:08:56.914Z,10.20
2023-10-24T01:11:25.389Z,9.70
2023-10-24T01:13:53.958Z,10.10
2023-10-24T01:16:22.559Z,9.93
2023-10-24T01:18:52.509Z,9.53
2023-10-24T01:21:21.070Z,9.70
2023-10-24T01:23:50.892Z,10.00
2023-10-24T01:26:19.757Z,9.80
2023-10-24T01:28:48.184Z,9.60
2023-10-24T01:31:31.936Z,9.63
2023-10-24T01:34:00.446Z,9.97
2023-10-24T01:36:28.807Z,9.73
2023-10-24T01:38:58.561Z,9.97
2023-10-24T01:41:26.989Z,9.40
2023-10-24T01:43:55.344Z,8.87
2023-10-24T01:46:23.742Z,10.60
2023-10-24T01:48:52.186Z,9.87
2023-10-24T01:51:21.007Z,10.23
2023-10-24T01:53:49.638Z,8.97
2023-10-24T01:56:19.439Z,10.27
2023-10-24T01:58:48.182Z,11.20
2023-10-24T02:01:16.967Z,10.40
2023-10-24T02:03:45.451Z,9.20
2023-10-24T02:06:13.987Z,9.83
2023-10-24T02:08:42.360Z,9.53
2023-10-24T02:11:10.672Z,8.83
2023-10-24T02:13:40.487Z,9.37
2023-10-24T02:16:08.960Z,9.70
2023-10-24T02:18:37.360Z,9.07
2023-10-24T02:21:09.284Z,9.00
2023-10-24T02:23:39.499Z,9.60
2023-10-24T02:26:07.862Z,9.60
2023-10-24T02:28:37.074Z,10.10
2023-10-24T02:31:06.890Z,8.43
2023-10-24T02:33:35.295Z,9.00
2023-10-24T02:36:15.240Z,10.63
2023-10-24T02:38:43.934Z,9.90
2023-10-24T02:41:12.325Z,9.10
2023-10-24T02:43:40.790Z,9.23
2023-10-24T02:46:10.902Z,9.60
2023-10-24T02:48:39.424Z,9.53
2023-10-24T02:51:07.792Z,9.23
2023-10-24T02:53:36.220Z,11.07
2023-10-24T02:56:04.969Z,10.43
2023-10-24T02:58:33.452Z,10.40
2023-10-24T03:01:05.171Z,10.00
2023-10-24T03:03:35.375Z,9.67
2023-10-24T03:06:03.808Z,10.27
2023-10-24T03:08:32.272Z,10.33
2023-10-24T03:11:00.658Z,11.50
2023-10-24T03:13:29.201Z,11.10
2023-10-24T03:15:57.630Z,10.57
2023-10-24T03:18:26.023Z,10.70
2023-10-24T03:20:55.764Z,11.60
2023-10-24T03:23:24.196Z,10.27
2023-10-24T03:25:53.115Z,11.83
2023-10-24T03:28:21.688Z,11.53
2023-10-24T03:30:50.568Z,10.30
2023-10-24T03:33:18.883Z,10.40
2023-10-24T03:35:47.258Z,11.17
2023-10-24T03:38:17.060Z,10.90
2023-10-24T03:40:45.477Z,11.47
2023-10-24T03:43:14.023Z,9.70
2023-10-24T03:45:42.472Z,10.40
2023-10-24T03:48:10.971Z,10.73
2023-10-24T03:50:39.333Z,10.83
2023-10-24T03:53:07.977Z,9.73
2023-10-24T03:55:39.064Z,9.60
2023-10-24T03:58:07.594Z,9.80
2023-10-24T04:00:35.951Z,9.03
2023-10-24T04:03:04.593Z,10.50
2023-10-24T04:05:34.688Z,10.37
2023-10-24T04:08:04.441Z,10.90
2023-10-24T04:10:34.938Z,10.40
2023-10-24T04:13:04.732Z,9.73
2023-10-24T04:15:33.111Z,10.33
2023-10-24T04:18:01.574Z,10.63
2023-10-24T04:20:31.733Z,10.07
2023-10-24T04:23:03.640Z,10.40
2023-10-24T04:25:32.326Z,9.53
2023-10-24T04:28:00.781Z,10.70
2023-10-24T04:30:30.549Z,9.87
2023-10-24T04:32:59.149Z,10.30
2023-10-24T04:35:27.639Z,9.17
2023-10-24T04:37:56.089Z,10.23
2023-10-24T04:40:24.934Z,9.43
2023-10-24T04:42:53.371Z,9.47
2023-10-24T04:45:22.166Z,9.13
2023-10-24T04:47:52.012Z,9.40
2023-10-24T04:50:20.563Z,10.20
2023-10-24T04:52:50.737Z,9.80
2023-10-24T04:55:19.477Z,10.33
2023-10-24T04:57:47.869Z,8.73
2023-10-24T05:00:17.168Z,10.40
2023-10-24T05:02:46.359Z,10.40
2023-10-24T05:05:16.107Z,10.53
2023-10-24T05:07:44.474Z,9.53
2023-10-24T05:10:13.082Z,10.43
2023-10-24T05:12:41.449Z,10.20
2023-10-24T05:15:10.920Z,9.17
2023-10-24T05:17:39.430Z,10.93
2023-10-24T05:20:10.525Z,9.80
2023-10-24T05:22:40.284Z,11.33
2023-10-24T05:25:09.448Z,9.97
2023-10-24T05:27:37.833Z,10.47
2023-10-24T05:30:08.283Z,10.30
2023-10-24T05:32:37.014Z,11.50
2023-10-24T05:35:06.407Z,10.80
2023-10-24T05:37:34.796Z,10.73
2023-10-24T05:40:05.448Z,10.57
2023-10-24T05:42:33.872Z,11.00
2023-10-24T05:45:02.301Z,10.50
2023-10-24T05:47:30.658Z,10.17
2023-10-24T05:49:59.036Z,10.00
2023-10-24T05:52:28.810Z,10.63
2023-10-24T05:54:59.448Z,11.40
2023-10-24T05:57:30.255Z,10.57
2023-10-24T05:59:58.628Z,11.30
2023-10-24T06:02:26.993Z,10.67
2023-10-24T06:04:55.519Z,11.23
2023-10-24T06:07:24.559Z,11.10
2023-10-24T06:09:53.737Z,11.20
2023-10-24T06:12:22.137Z,11.20
2023-10-24T06:14:51.839Z,10.40
2023-10-24T06:17:20.247Z,12.10
2023-10-24T06:19:50.427Z,11.13
2023-10-24T06:22:18.909Z,11.50
2023-10-24T06:24:47.346Z,11.47
2023-10-24T06:27:17.543Z,10.93
2023-10-24T06:29:45.933Z,11.10
2023-10-24T06:32:15.865Z,13.13
2023-10-24T06:34:44.320Z,12.57
2023-10-24T06:37:13.264Z,12.20
2023-10-24T06:39:41.891Z,12.10
2023-10-24T06:42:12.184Z,12.23
2023-10-24T06:44:40.617Z,12.27
2023-10-24T06:47:09.143Z,12.60
2023-10-24T06:49:39.050Z,12.33
2023-10-24T06:52:07.897Z,12.30
2023-10-24T06:54:36.282Z,12.33
2023-10-24T06:57:04.892Z,11.60
2023-10-24T06:59:33.340Z,11.20
2023-10-24T07:02:01.800Z,11.63
2023-10-24T07:04:30.210Z,11.80
2023-10-24T07:06:59.946Z,12.20
2023-10-24T07:09:28.301Z,10.37
2023-10-24T07:11:56.682Z,12.00
2023-10-24T07:14:25.887Z,12.10
2023-10-24T07:16:54.295Z,11.50
2023-10-24T07:19:22.841Z,11.00
2023-10-24T07:21:51.264Z,11.43
2023-10-24T07:24:21.026Z,12.07
2023-10-24T07:26:49.388Z,11.63
2023-10-24T07:29:17.924Z,11.60
2023-10-24T07:31:46.308Z,11.37
2023-10-24T07:34:14.759Z,12.97
2023-10-24T07:36:43.180Z,12.43
2023-10-24T07:39:11.568Z,11.87
2023-10-24T07:41:41.327Z,11.70
2023-10-24T07:44:09.766Z,12.80
2023-10-24T07:46:38.235Z,11.70
2023-10-24T07:49:06.858Z,12.10
2023-10-24T07:51:35.354Z,12.40
2023-10-24T07:54:03.693Z,12.30
2023-10-24T07:56:32.091Z,13.90
2023-10-24T07:59:01.864Z,12.70
2023-10-24T08:01:30.378Z,11.90
2023-10-24T08:03:59.341Z,12.33
2023-10-24T08:06:30.450Z,13.23
2023-10-24T08:08:59.159Z,12.10
2023-10-24T08:11:28.327Z,13.20
2023-10-24T08:13:56.822Z,12.37
2023-10-24T08:16:26.705Z,14.37
2023-10-24T08:18:55.094Z,12.63
2023-10-24T08:21:23.464Z,13.20
2023-10-24T08:23:52.266Z,13.07
2023-10-24T08:26:21.403Z,12.33
2023-10-24T08:28:49.816Z,13.10
2023-10-24T08:31:18.249Z,13.20
2023-10-24T08:33:48.030Z,14.03
2023-10-24T08:36:16.318Z,12.73
2023-10-24T08:38:44.720Z,13.47
2023-10-24T08:41:13.145Z,14.33
2023-10-24T08:43:41.959Z,12.90
2023-10-24T08:46:10.514Z,12.67
2023-10-24T08:48:39.012Z,14.00
2023-10-24T08:51:08.910Z,13.90
2023-10-24T08:53:37.268Z,12.13
2023-10-24T08:56:07.679Z,11.90
2023-10-24T08:58:36.118Z,12.60
2023-10-24T09:01:04.704Z,13.27
2023-10-24T09:03:33.176Z,14.20
2023-10-24T09:06:01.541Z,13.20
2023-10-24T09:08:31.355Z,11.80
2023-10-24T09:10:59.760Z,11.67
2023-10-24T09:13:28.195Z,16.93
2023-10-24T09:16:10.034Z,17.10
2023-10-24T09:18:38.907Z,19.30
2023-10-24T09:21:07.973Z,13.53
2023-10-24T09:23:37.919Z,12.57
2023-10-24T09:26:06.542Z,11.90
2023-10-24T09:28:36.073Z,12.27
2023-10-24T09:31:05.593Z,11.57
2023-10-24T09:33:34.915Z,12.13
2023-10-24T09:36:14.654Z,12.20
2023-10-24T09:38:45.827Z,12.00
2023-10-24T09:41:14.294Z,11.40
2023-10-24T09:43:44.126Z,12.90
2023-10-24T09:46:12.502Z,11.47
2023-10-24T09:48:40.973Z,13.23
2023-10-24T09:51:09.400Z,11.77
2023-10-24T09:53:37.896Z,13.13
2023-10-24T09:56:08.402Z,12.80
2023-10-24T09:58:40.659Z,12.90
2023-10-24T10:01:08.991Z,10.97
2023-10-24T10:03:37.726Z,12.30
2023-10-24T10:06:07.946Z,10.50
2023-10-24T10:08:37.971Z,11.70
2023-10-24T10:11:08.099Z,11.47
2023-10-24T10:13:40.396Z,13.33
2023-10-24T10:16:20.046Z,11.70
2023-10-24T10:19:16.429Z,11.33
2023-10-24T10:21:53.441Z,10.40
2023-10-24T10:24:47.301Z,11.40
2023-10-24T10:27:24.911Z,12.10
2023-10-24T10:30:16.685Z,11.03
2023-10-24T10:33:02.365Z,12.03
2023-10-24T10:35:55.878Z,12.40
2023-10-24T10:38:41.122Z,11.50
2023-10-24T10:41:41.519Z,11.70
2023-10-24T10:44:45.646Z,13.83
2023-10-24T10:47:15.570Z,15.20
2023-10-24T10:49:50.112Z,15.67
2023-10-24T10:52:31.246Z,14.63
2023-10-24T10:55:28.789Z,12.13
2023-10-24T10:58:16.799Z,12.30
2023-10-24T11:00:59.230Z,12.93
2023-10-24T11:03:40.334Z,11.60
2023-10-24T11:06:14.116Z,10.67
2023-10-24T11:08:43.312Z,11.63
2023-10-24T11:11:12.271Z,11.40
2023-10-24T11:13:43.128Z,12.43
2023-10-24T11:16:25.183Z,12.37
2023-10-24T11:18:59.380Z,10.70
2023-10-24T11:21:27.930Z,10.87
2023-10-24T11:23:56.392Z,11.40
2023-10-24T11:26:24.890Z,10.60
2023-10-24T11:28:53.694Z,10.70
2023-10-24T11:31:24.329Z,11.90
2023-10-24T11:33:53.231Z,10.80
2023-10-24T11:36:22.274Z,11.83
2023-10-24T11:38:50.831Z,11.43
2023-10-24T11:41:19.242Z,10.10
2023-10-24T11:43:49.455Z,9.63
2023-10-24T11:46:18.038Z,10.57
2023-10-24T11:48:47.802Z,11.57
2023-10-24T11:51:16.128Z,10.80
2023-10-24T11:53:45.565Z,9.83
2023-10-24T11:56:14.527Z,10.83
2023-10-24T11:58:44.116Z,9.60
2023-10-24T12:01:13.305Z,10.53
2023-10-24T12:03:46.972Z,9.80
2023-10-24T12:06:18.797Z,10.17
2023-10-24T12:08:47.160Z,9.63
2023-10-24T12:11:15.544Z,11.80
2023-10-24T12:13:43.923Z,13.17
2023-10-24T12:16:12.388Z,11.00
2023-10-24T12:18:40.852Z,11.40
2023-10-24T12:21:12.498Z,8.80
2023-10-24T12:23:42.210Z,10.57
2023-10-24T12:26:11.302Z,10.37
2023-10-24T12:28:44.121Z,11.13
2023-10-24T12:31:13.095Z,9.47
2023-10-24T12:33:41.569Z,9.90
2023-10-24T12:36:10.100Z,12.07
2023-10-24T12:38:39.492Z,11.47
2023-10-24T12:41:09.311Z,11.10
2023-10-24T12:43:37.806Z,10.13
2023-10-24T12:46:06.286Z,10.17
2023-10-24T12:48:40.299Z,10.80
2023-10-24T12:51:17.878Z,9.10
2023-10-24T12:53:46.232Z,10.40
2023-10-24T12:56:17.151Z,10.07
2023-10-24T12:58:48.024Z,9.27
2023-10-24T13:01:18.888Z,10.53
2023-10-24T13:03:49.344Z,10.87
2023-10-24T13:06:18.054Z,11.00
2023-10-24T13:08:46.637Z,9.90
2023-10-24T13:11:19.186Z,11.13
2023-10-24T13:13:48.178Z,9.40
2023-10-24T13:16:16.797Z,10.80
2023-10-24T13:18:45.283Z,10.03
2023-10-24T13:21:13.765Z,10.07
2023-10-24T13:23:42.083Z,9.40
2023-10-24T13:26:10.620Z,9.87
2023-10-24T13:28:40.412Z,10.30
2023-10-24T13:31:15.654Z,10.60
2023-10-24T13:34:20.462Z,10.00
2023-10-24T13:36:33.823Z,9.20
2023-10-24T13:39:02.240Z,10.40
2023-10-24T13:41:30.648Z,10.40
2023-10-24T13:44:00.720Z,10.00
2023-10-24T13:46:29.440Z,9.90
2023-10-24T13:48:58.743Z,10.40
2023-10-24T13:51:27.595Z,11.03
2023-10-24T13:53:56.948Z,10.93
2023-10-24T13:56:25.525Z,10.60
2023-10-24T13:58:54.011Z,11.30
2023-10-24T14:01:23.820Z,10.23
2023-10-24T14:03:52.786Z,11.10
2023-10-24T14:06:21.477Z,10.90
2023-10-24T14:08:49.930Z,11.40
2023-10-24T14:11:18.301Z,10.93
2023-10-24T14:13:47.228Z,10.80
2023-10-24T14:16:15.708Z,10.00
2023-10-24T14:18:45.553Z,11.90
2023-10-24T14:21:13.914Z,11.63
2023-10-24T14:23:42.467Z,11.00
2023-10-24T14:26:12.503Z,12.83
2023-10-24T14:28:41.325Z,13.70
2023-10-24T14:31:09.914Z,12.57
2023-10-24T14:33:38.609Z,12.07
2023-10-24T14:36:09.024Z,16.20
2023-10-24T14:38:37.410Z,17.87
2023-10-24T14:41:06.203Z,17.60
2023-10-24T14:43:36.303Z,15.93
2023-10-24T14:46:04.828Z,14.80
2023-10-24T14:48:36.425Z,15.17
2023-10-24T14:51:07.809Z,14.80
2023-10-24T14:53:36.110Z,13.60
2023-10-24T14:56:04.566Z,13.90
2023-10-24T14:58:33.095Z,12.50
2023-10-24T15:01:01.541Z,14.17
2023-10-24T15:03:30.013Z,14.80
2023-10-24T15:05:58.476Z,16.40
2023-10-24T15:08:28.214Z,17.30
2023-10-24T15:10:56.629Z,14.87
2023-10-24T15:13:24.985Z,14.90
2023-10-24T15:15:53.378Z,15.47
2023-10-24T15:18:22.099Z,16.93
2023-10-24T15:20:50.835Z,15.30
2023-10-24T15:23:19.242Z,13.90
2023-10-24T15:25:49.168Z,13.53
2023-10-24T15:28:17.676Z,16.13
2023-10-24T15:30:47.247Z,14.70
2023-10-24T15:33:15.748Z,16.10
2023-10-24T15:35:45.578Z,19.87
2023-10-24T15:38:14.036Z,17.10
2023-10-24T15:40:42.491Z,17.73
2023-10-24T15:43:12.256Z,16.10
2023-10-24T15:45:40.701Z,16.60
2023-10-24T15:48:09.234Z,16.40
2023-10-24T15:50:37.675Z,19.43
2023-10-24T15:53:06.243Z,21.20
2023-10-24T15:55:34.841Z,21.67
2023-10-24T15:58:06.245Z,22.60
2023-10-24T16:00:36.349Z,23.60
2023-10-24T16:03:04.990Z,21.43
2023-10-24T16:05:33.443Z,19.03
2023-10-24T16:08:02.013Z,17.97
2023-10-24T16:10:31.057Z,16.43
2023-10-24T16:13:00.220Z,24.93
2023-10-24T16:15:28.654Z,22.80
2023-10-24T16:17:58.444Z,20.30
2023-10-24T16:20:26.920Z,18.67
2023-10-24T16:22:55.338Z,16.53
2023-10-24T16:25:23.836Z,17.17
2023-10-24T16:27:52.209Z,15.27
2023-10-24T16:30:20.885Z,17.47
2023-10-24T16:32:49.806Z,16.93
2023-10-24T16:35:19.868Z,16.33
2023-10-24T16:37:48.466Z,17.20
2023-10-24T16:40:16.942Z,19.87
2023-10-24T16:42:45.356Z,18.97
2023-10-24T16:45:13.962Z,17.80
2023-10-24T16:47:42.319Z,20.77
2023-10-24T16:50:11.674Z,23.13
2023-10-24T16:52:41.533Z,19.77
2023-10-24T16:55:10.522Z,17.00
2023-10-24T16:57:38.880Z,17.80
2023-10-24T17:00:10.789Z,18.50
2023-10-24T17:02:39.314Z,19.03
2023-10-24T17:05:08.996Z,18.67
2023-10-24T17:07:42.392Z,17.83
2023-10-24T17:10:12.964Z,17.20
2023-10-24T17:12:41.476Z,19.67
2023-10-24T17:15:12.510Z,18.60
2023-10-24T17:17:41.107Z,18.07
2023-10-24T17:20:10.991Z,21.47
2023-10-24T17:22:39.468Z,20.20
2023-10-24T17:25:09.719Z,18.10
2023-10-24T17:27:39.935Z,17.90
2023-10-24T17:30:10.470Z,17.70
2023-10-24T17:32:39.153Z,18.90
2023-10-24T17:35:08.127Z,31.53
2023-10-24T17:37:36.553Z,22.47
2023-10-24T17:40:08.164Z,19.80
2023-10-24T17:42:38.454Z,16.57
2023-10-24T17:45:08.244Z,18.70
2023-10-24T17:47:36.576Z,19.23
2023-10-24T17:50:05.812Z,19.00
2023-10-24T17:52:34.169Z,20.13
2023-10-24T17:55:02.687Z,19.57
2023-10-24T17:57:31.019Z,17.60
2023-10-24T18:00:00.999Z,18.13
2023-10-24T18:02:29.658Z,18.70
2023-10-24T18:04:58.165Z,16.87
2023-10-24T18:07:28.481Z,20.33
2023-10-24T18:09:57.293Z,18.07
2023-10-24T18:12:25.699Z,18.30
2023-10-24T18:14:54.068Z,19.10
2023-10-24T18:17:23.890Z,29.57
2023-10-24T18:19:52.591Z,19.67
2023-10-24T18:22:21.030Z,18.70
2023-10-24T18:24:49.510Z,19.27
2023-10-24T18:27:17.852Z,18.87
2023-10-24T18:29:48.486Z,19.47
2023-10-24T18:32:17.222Z,18.90
2023-10-24T18:34:47.470Z,18.27
2023-10-24T18:37:17.560Z,18.60
2023-10-24T18:39:45.988Z,17.20
2023-10-24T18:42:14.386Z,17.30
2023-10-24T18:44:43.151Z,18.13
2023-10-24T18:47:11.578Z,18.80
2023-10-24T18:49:40.119Z,17.73
2023-10-24T18:52:10.169Z,17.30
2023-10-24T18:54:38.642Z,17.63
2023-10-24T18:57:07.141Z,21.83
2023-10-24T18:59:35.794Z,21.13
2023-10-24T19:02:04.305Z,20.90
2023-10-24T19:04:36.290Z,20.50
2023-10-24T19:07:05.473Z,20.40
2023-10-24T19:09:35.357Z,19.93
2023-10-24T19:12:04.804Z,20.53
2023-10-24T19:14:33.860Z,16.97
2023-10-24T19:17:03.267Z,16.20
2023-10-24T19:19:32.569Z,15.40
2023-10-24T19:22:01.771Z,17.80
2023-10-24T19:24:30.828Z,16.17
2023-10-24T19:27:01.462Z,15.90
2023-10-24T19:29:30.676Z,16.20
2023-10-24T19:31:59.807Z,15.10
2023-10-24T19:34:28.905Z,14.67
2023-10-24T19:36:57.480Z,15.03
2023-10-24T19:39:26.594Z,14.37
2023-10-24T19:41:56.561Z,14.37
2023-10-24T19:44:27.422Z,15.17
2023-10-24T19:46:55.880Z,15.53
2023-10-24T19:49:24.536Z,15.37
2023-10-24T19:51:53.922Z,16.90
2023-10-24T19:54:23.969Z,14.83
2023-10-24T19:56:52.766Z,15.63
2023-10-24T19:59:21.968Z,15.67
2023-10-24T20:01:52.456Z,15.00
2023-10-24T20:04:21.862Z,15.80
2023-10-24T20:06:51.992Z,15.40
2023-10-24T20:09:20.827Z,16.70
2023-10-24T20:12:38.101Z,16.57
2023-10-24T20:14:39.187Z,15.43
2023-10-24T20:17:09.557Z,15.23
2023-10-24T20:19:39.030Z,14.90
2023-10-24T20:22:09.366Z,17.77
2023-10-24T20:24:38.646Z,15.20
2023-10-24T20:27:08.037Z,15.70
2023-10-24T20:29:36.499Z,14.70
2023-10-24T20:32:05.660Z,16.73
2023-10-24T20:34:35.761Z,17.67
2023-10-24T20:37:04.227Z,14.13
2023-10-24T20:39:32.675Z,14.30
2023-10-24T20:42:01.195Z,12.93
2023-10-24T20:44:29.561Z,15.10
2023-10-24T20:46:58.312Z,13.00
2023-10-24T20:49:26.714Z,14.37
2023-10-24T20:51:56.629Z,13.83
2023-10-24T20:54:25.214Z,14.40
2023-10-24T20:56:53.758Z,14.00
2023-10-24T20:59:22.139Z,14.97
2023-10-24T21:01:50.769Z,12.93
2023-10-24T21:04:19.309Z,12.70
2023-10-24T21:06:47.706Z,12.60
2023-10-24T21:09:17.638Z,14.00
2023-10-24T21:11:46.074Z,12.37
2023-10-24T21:14:14.495Z,13.70
2023-10-24T21:16:42.923Z,13.50
2023-10-24T21:19:11.705Z,14.30
2023-10-24T21:21:40.325Z,12.93
2023-10-24T21:24:10.048Z,13.17
2023-10-24T21:26:39.894Z,14.03
2023-10-24T21:29:08.614Z,13.90
2023-10-24T21:31:37.160Z,14.30
2023-10-24T21:34:05.975Z,13.70
2023-10-24T21:36:34.514Z,14.00
2023-10-24T21:39:04.741Z,14.00
2023-10-24T21:41:33.270Z,13.90
2023-10-24T21:44:03.014Z,14.90
2023-10-24T21:46:31.887Z,14.17
2023-10-24T21:49:01.028Z,13.80
2023-10-24T21:51:29.582Z,14.47
2023-10-24T21:53:58.012Z,15.70
2023-10-24T21:56:26.506Z,14.20
2023-10-24T21:58:54.961Z,14.20
2023-10-24T22:01:24.829Z,13.80
2023-10-24T22:03:54.154Z,14.73
2023-10-24T22:06:22.713Z,13.77
2023-10-24T22:08:51.204Z,13.03
2023-10-24T22:11:19.580Z,13.07
2023-10-24T22:13:48.064Z,14.03
2023-10-24T22:16:16.519Z,12.63
2023-10-24T22:18:46.451Z,12.27
2023-10-24T22:21:14.894Z,12.93
2023-10-24T22:23:43.232Z,13.00
2023-10-24T22:26:11.692Z,12.00
2023-10-24T22:28:41.186Z,11.67
2023-10-24T22:31:09.839Z,12.10
2023-10-24T22:33:38.391Z,10.43
2023-10-24T22:36:08.934Z,10.70
2023-10-24T22:38:37.435Z,10.53
2023-10-24T22:41:05.902Z,10.27
2023-10-24T22:43:36.020Z,9.43
2023-10-24T22:46:05.220Z,10.43
2023-10-24T22:48:33.693Z,9.83
2023-10-24T22:51:02.071Z,8.97
2023-10-24T22:53:32.033Z,9.83
2023-10-24T22:56:00.451Z,9.73
2023-10-24T22:58:28.894Z,9.93
2023-10-24T23:00:57.354Z,9.77
2023-10-24T23:03:25.973Z,9.97
2023-10-24T23:05:59.811Z,9.43
2023-10-24T23:08:28.182Z,9.83
2023-10-24T23:11:05.601Z,9.23
2023-10-24T23:13:34.087Z,7.57
2023-10-24T23:16:05.510Z,8.17
2023-10-24T23:18:34.238Z,9.10
2023-10-24T23:21:02.650Z,8.03
2023-10-24T23:23:31.439Z,10.90
2023-10-24T23:25:59.843Z,9.70
2023-10-24T23:28:29.619Z,8.97
2023-10-24T23:30:59.166Z,9.20
2023-10-24T23:33:27.661Z,10.30
2023-10-24T23:35:56.051Z,9.47
2023-10-24T23:38:24.363Z,9.27
2023-10-24T23:40:52.771Z,8.37
2023-10-24T23:43:21.300Z,9.10
2023-10-24T23:45:51.139Z,9.03
2023-10-24T23:48:19.618Z,8.83
2023-10-24T23:50:47.987Z,9.87
2023-10-24T23:53:16.512Z,9.83
2023-10-24T23:55:44.905Z,10.33
2023-10-24T23:58:14.034Z,9.73
